Weather at Singapore Changi Airport

Public forecast

Using degrees Celsius for public forecast. Weather courtesy of forecast.io.

Current aviation weather report (METAR) for Singapore Changi Airport

Retrieved 2021/10/24 08:30 UTC (12 minutes ago):

WSSS 240830Z VRB04KT 8000 VCTS FEW013 FEW017CB FEW018TCU SCT050 31/24 Q1008 TEMPO FM0850 TL0950 4000 SHRA BECMG FM0950 TL1000 6000 -RA

Aviation forecast (TAF) for Singapore Changi Airport

Retrieved 2021/10/24 06:09 UTC (3 hours ago):

TAF WSSS 240500Z 2406/2512 23005KT 9999 FEW015 SCT020 TEMPO 2406/2409 3000 TSRA FEW012CB BKN015 TEMPO 2423/2502 3000 TSRA FEW012CB BKN015